createdAt,value
2022-08-03T00:00:45.346Z,1.40
2022-08-03T00:03:13.854Z,1.48
2022-08-03T00:06:03.891Z,1.20
2022-08-03T00:08:30.692Z,1.20
2022-08-03T00:10:59.680Z,1.23
2022-08-03T00:13:27.994Z,1.48
2022-08-03T00:15:56.328Z,1.17
2022-08-03T00:18:24.424Z,1.00
2022-08-03T00:20:52.404Z,1.30
2022-08-03T00:23:20.671Z,1.10
2022-08-03T00:25:48.525Z,1.20
2022-08-03T00:28:16.741Z,1.00
2022-08-03T00:30:44.872Z,1.12
2022-08-03T00:33:12.848Z,1.10
2022-08-03T00:35:50.343Z,1.45
2022-08-03T00:38:20.220Z,1.30
2022-08-03T00:40:48.136Z,1.23
2022-08-03T00:43:16.620Z,1.65
2022-08-03T00:45:44.918Z,1.63
2022-08-03T00:48:29.671Z,1.60
2022-08-03T00:51:01.524Z,1.20
2022-08-03T00:53:29.758Z,1.58
2022-08-03T00:55:58.220Z,1.50
2022-08-03T00:58:26.492Z,1.63
2022-08-03T01:00:54.453Z,1.58
2022-08-03T01:03:22.303Z,1.20
2022-08-03T01:05:56.771Z,1.50
2022-08-03T01:08:58.957Z,1.40
2022-08-03T01:11:35.764Z,1.23
2022-08-03T01:14:38.936Z,1.20
2022-08-03T01:17:34.441Z,1.73
2022-08-03T01:20:11.212Z,1.20
2022-08-03T01:22:55.155Z,1.50
2022-08-03T01:25:37.795Z,1.10
2022-08-03T01:28:09.059Z,1.50
2022-08-03T01:30:43.892Z,1.20
2022-08-03T01:33:28.581Z,1.40
2022-08-03T01:36:04.473Z,1.23
2022-08-03T01:38:36.110Z,1.30
2022-08-03T01:41:08.998Z,1.40
2022-08-03T01:43:55.108Z,1.30
2022-08-03T01:46:31.588Z,1.30
2022-08-03T01:49:09.381Z,1.55
2022-08-03T01:51:56.100Z,1.30
2022-08-03T01:54:32.871Z,1.40
2022-08-03T01:57:03.017Z,1.40
2022-08-03T01:59:34.777Z,1.40
2022-08-03T02:02:32.270Z,1.30
2022-08-03T02:04:57.856Z,1.10
2022-08-03T02:07:28.105Z,1.30
2022-08-03T02:09:58.614Z,1.30
2022-08-03T02:12:30.398Z,1.30
2022-08-03T02:15:00.917Z,1.42
2022-08-03T02:17:38.938Z,1.40
2022-08-03T02:20:13.539Z,1.35
2022-08-03T02:22:43.364Z,1.45
2022-08-03T02:25:15.626Z,1.08
2022-08-03T02:27:52.854Z,1.65
2022-08-03T02:30:25.321Z,1.90
2022-08-03T02:32:57.963Z,1.65
2022-08-03T02:35:28.725Z,2.17
2022-08-03T02:38:01.254Z,2.00
2022-08-03T02:40:31.442Z,1.95
2022-08-03T02:43:03.926Z,2.00
2022-08-03T02:45:33.464Z,1.95
2022-08-03T02:48:04.266Z,1.70
2022-08-03T02:50:35.278Z,2.10
2022-08-03T02:53:04.582Z,1.80
2022-08-03T02:55:35.805Z,2.00
2022-08-03T02:58:13.385Z,1.90
2022-08-03T03:00:45.100Z,3.40
2022-08-03T03:03:14.309Z,2.17
2022-08-03T03:05:54.865Z,2.55
2022-08-03T03:08:26.190Z,1.73
2022-08-03T03:11:00.214Z,1.70
2022-08-03T03:13:30.407Z,2.40
2022-08-03T03:16:04.290Z,1.75
2022-08-03T03:18:33.810Z,2.00
2022-08-03T03:21:04.259Z,1.73
2022-08-03T03:23:35.508Z,2.10
2022-08-03T03:26:04.984Z,1.98
2022-08-03T03:28:33.624Z,2.53
2022-08-03T03:31:01.944Z,2.00
2022-08-03T03:33:30.479Z,3.13
2022-08-03T03:35:59.078Z,2.40
2022-08-03T03:38:27.603Z,2.53
2022-08-03T03:40:56.147Z,2.05
2022-08-03T03:43:24.967Z,2.08
2022-08-03T03:45:55.081Z,2.03
2022-08-03T03:48:25.140Z,2.60
2022-08-03T03:50:53.534Z,3.35
2022-08-03T03:53:21.506Z,3.00
2022-08-03T03:55:59.221Z,3.55
2022-08-03T03:58:31.798Z,2.97
2022-08-03T04:01:00.953Z,2.42
2022-08-03T04:03:29.449Z,2.30
2022-08-03T04:06:16.346Z,2.62
2022-08-03T04:09:03.832Z,2.17
2022-08-03T04:11:34.575Z,2.30
2022-08-03T04:14:08.038Z,2.08
2022-08-03T04:16:43.693Z,2.75
2022-08-03T04:19:22.913Z,2.40
2022-08-03T04:21:56.972Z,2.25
2022-08-03T04:24:30.723Z,2.33
2022-08-03T04:27:00.999Z,2.45
2022-08-03T04:29:33.275Z,2.33
2022-08-03T04:32:01.596Z,2.80
2022-08-03T04:34:31.780Z,1.87
2022-08-03T04:37:03.176Z,2.30
2022-08-03T04:39:33.078Z,2.40
2022-08-03T04:42:08.698Z,2.03
2022-08-03T04:44:40.648Z,2.08
2022-08-03T04:47:09.131Z,1.95
2022-08-03T04:49:38.922Z,2.17
2022-08-03T04:52:08.864Z,1.87
2022-08-03T04:54:50.036Z,2.03
2022-08-03T04:57:23.296Z,1.90
2022-08-03T05:00:02.038Z,1.50
2022-08-03T05:02:32.338Z,2.03
2022-08-03T05:05:00.970Z,1.80
2022-08-03T05:07:35.508Z,2.08
2022-08-03T05:10:15.894Z,1.62
2022-08-03T05:12:46.486Z,2.22
2022-08-03T05:15:15.331Z,2.00
2022-08-03T05:17:43.287Z,2.22
2022-08-03T05:20:12.076Z,2.30
2022-08-03T05:22:40.566Z,2.20
2022-08-03T05:25:08.675Z,2.30
2022-08-03T05:27:36.755Z,2.20
2022-08-03T05:30:26.758Z,2.20
2022-08-03T05:32:53.927Z,2.80
2022-08-03T05:36:00.651Z,2.58
2022-08-03T05:38:10.286Z,2.28
2022-08-03T05:40:39.511Z,2.97
2022-08-03T05:43:24.900Z,2.20
2022-08-03T05:46:12.107Z,2.65
2022-08-03T05:48:42.110Z,2.00
2022-08-03T05:51:11.856Z,2.17
2022-08-03T05:53:41.402Z,4.83
2022-08-03T05:56:13.875Z,5.20
2022-08-03T05:58:48.787Z,2.67
2022-08-03T06:01:17.453Z,2.25
2022-08-03T06:03:46.250Z,2.87
2022-08-03T06:06:14.446Z,3.30
2022-08-03T06:08:43.821Z,3.25
2022-08-03T06:11:12.814Z,3.35
2022-08-03T06:13:41.408Z,3.20
2022-08-03T06:16:09.359Z,3.20
2022-08-03T06:18:38.628Z,3.23
2022-08-03T06:21:15.551Z,3.15
2022-08-03T06:23:53.196Z,3.67
2022-08-03T06:26:27.905Z,2.83
2022-08-03T06:28:56.816Z,3.40
2022-08-03T06:31:33.027Z,2.63
2022-08-03T06:34:34.225Z,3.25
2022-08-03T06:36:52.253Z,3.30
2022-08-03T06:39:23.676Z,2.87
2022-08-03T06:41:53.676Z,3.87
2022-08-03T06:44:24.693Z,3.67
2022-08-03T06:46:53.137Z,3.60
2022-08-03T06:49:21.589Z,3.70
2022-08-03T06:52:05.506Z,3.87
2022-08-03T06:54:35.981Z,4.05
2022-08-03T06:57:04.599Z,4.20
2022-08-03T07:00:10.828Z,3.85
2022-08-03T07:02:21.674Z,3.60
2022-08-03T07:04:50.046Z,4.07
2022-08-03T07:07:19.479Z,4.15
2022-08-03T07:09:56.835Z,4.10
2022-08-03T07:12:29.999Z,4.15
2022-08-03T07:15:02.525Z,4.50
2022-08-03T07:17:34.103Z,3.95
2022-08-03T07:20:07.192Z,4.50
2022-08-03T07:22:36.376Z,4.87
2022-08-03T07:25:05.192Z,4.28
2022-08-03T07:27:35.796Z,4.30
2022-08-03T07:30:08.010Z,4.65
2022-08-03T07:32:36.279Z,4.37
2022-08-03T07:35:24.289Z,4.33
2022-08-03T07:37:55.130Z,5.10
2022-08-03T07:40:25.120Z,4.35
2022-08-03T07:42:59.719Z,4.40
2022-08-03T07:45:27.689Z,4.43
2022-08-03T07:47:55.649Z,4.50
2022-08-03T07:50:24.046Z,4.55
2022-08-03T07:52:53.709Z,4.25
2022-08-03T07:55:25.367Z,4.87
2022-08-03T07:58:09.419Z,4.72
2022-08-03T08:00:37.330Z,4.70
2022-08-03T08:03:05.832Z,4.68
2022-08-03T08:05:34.550Z,4.65
2022-08-03T08:08:03.489Z,5.60
2022-08-03T08:10:32.931Z,6.00
2022-08-03T08:13:01.836Z,4.57
2022-08-03T08:15:32.300Z,5.40
2022-08-03T08:18:02.874Z,5.40
2022-08-03T08:20:38.232Z,5.57
2022-08-03T08:23:37.032Z,5.68
2022-08-03T08:26:00.624Z,5.00
2022-08-03T08:28:33.537Z,5.10
2022-08-03T08:31:02.457Z,5.60
2022-08-03T08:36:20.497Z,4.87
2022-08-03T08:38:48.810Z,5.17
2022-08-03T08:41:16.958Z,4.85
2022-08-03T08:43:44.934Z,6.30
2022-08-03T08:46:22.921Z,5.68
2022-08-03T08:48:53.874Z,5.40
2022-08-03T08:51:54.658Z,5.60
2022-08-03T08:54:17.197Z,5.40
2022-08-03T08:56:45.594Z,5.03
2022-08-03T08:59:14.342Z,5.30
2022-08-03T09:01:42.614Z,5.43
2022-08-03T09:04:11.414Z,4.97
2022-08-03T09:06:39.290Z,5.62
2022-08-03T09:10:05.234Z,5.25
2022-08-03T09:12:35.315Z,4.68
2022-08-03T09:15:15.776Z,5.75
2022-08-03T09:17:51.432Z,5.10
2022-08-03T09:20:22.606Z,4.78
2022-08-03T09:23:59.140Z,3.95
2022-08-03T09:26:01.835Z,4.20
2022-08-03T09:29:00.594Z,3.78
2022-08-03T09:31:37.159Z,3.50
2022-08-03T09:34:09.677Z,3.40
2022-08-03T09:36:49.246Z,3.60
2022-08-03T09:39:41.582Z,3.80
2022-08-03T09:42:19.198Z,3.55
2022-08-03T09:44:53.760Z,3.93
2022-08-03T09:47:45.160Z,4.30
2022-08-03T09:50:14.485Z,4.18
2022-08-03T09:52:52.325Z,4.53
2022-08-03T09:56:33.926Z,4.07
2022-08-03T09:58:14.562Z,4.07
2022-08-03T10:01:07.848Z,3.67
2022-08-03T10:04:04.264Z,3.72
2022-08-03T10:06:33.094Z,3.67
2022-08-03T10:09:11.269Z,3.35
2022-08-03T10:11:42.153Z,3.90
2022-08-03T10:14:19.342Z,3.83
2022-08-03T10:16:50.142Z,3.70
2022-08-03T10:19:19.480Z,3.50
2022-08-03T10:21:56.792Z,3.53
2022-08-03T10:24:29.743Z,3.30
2022-08-03T10:27:03.923Z,3.45
2022-08-03T10:29:38.782Z,3.28
2022-08-03T10:32:16.844Z,3.20
2022-08-03T10:34:45.851Z,3.70
2022-08-03T10:37:16.266Z,3.43
2022-08-03T10:39:54.403Z,3.60
2022-08-03T10:42:27.331Z,3.60
2022-08-03T10:45:19.937Z,3.60
2022-08-03T10:47:50.118Z,3.67
2022-08-03T10:50:19.042Z,3.00
2022-08-03T10:52:58.520Z,3.75
2022-08-03T10:55:52.774Z,3.53
2022-08-03T10:58:53.104Z,3.20
2022-08-03T11:01:59.851Z,3.28
2022-08-03T11:04:30.329Z,3.10
2022-08-03T11:07:19.767Z,3.40
2022-08-03T11:09:58.506Z,3.37
2022-08-03T11:12:32.698Z,3.20
2022-08-03T11:15:11.311Z,3.10
2022-08-03T11:17:46.495Z,2.57
2022-08-03T11:20:46.106Z,3.12
2022-08-03T11:23:15.896Z,3.10
2022-08-03T11:26:12.058Z,2.70
2022-08-03T11:28:41.469Z,2.87
2022-08-03T11:31:48.771Z,2.90
2022-08-03T11:34:17.257Z,2.72
2022-08-03T11:37:26.347Z,3.00
2022-08-03T11:39:57.333Z,3.40
2022-08-03T11:42:26.391Z,3.05
2022-08-03T11:44:59.328Z,2.93
2022-08-03T11:47:29.790Z,2.75
2022-08-03T11:50:02.146Z,2.75
2022-08-03T11:52:39.164Z,2.80
2022-08-03T11:55:12.103Z,3.00
2022-08-03T11:59:15.277Z,3.10
2022-08-03T12:00:35.086Z,2.50
2022-08-03T12:03:23.609Z,2.60
2022-08-03T12:06:10.656Z,2.28
2022-08-03T12:09:17.201Z,2.17
2022-08-03T12:12:23.231Z,2.23
2022-08-03T12:15:08.521Z,2.58
2022-08-03T12:17:59.746Z,2.80
2022-08-03T12:20:39.361Z,2.60
2022-08-03T12:23:12.418Z,2.50
2022-08-03T12:25:42.282Z,2.40
2022-08-03T12:28:28.222Z,2.12
2022-08-03T12:31:07.518Z,2.28
2022-08-03T12:33:59.223Z,2.37
2022-08-03T12:36:28.532Z,2.30
2022-08-03T12:38:59.926Z,2.30
2022-08-03T12:41:30.409Z,2.20
2022-08-03T12:43:59.122Z,3.20
2022-08-03T12:46:46.951Z,2.20
2022-08-03T12:49:18.892Z,2.33
2022-08-03T12:51:46.954Z,2.10
2022-08-03T12:54:27.211Z,2.25
2022-08-03T12:57:00.704Z,2.80
2022-08-03T12:59:34.809Z,2.20
2022-08-03T13:02:09.182Z,2.55
2022-08-03T13:04:38.421Z,2.40
2022-08-03T13:07:12.748Z,2.35
2022-08-03T13:09:47.816Z,2.15
2022-08-03T13:12:21.453Z,2.20
2022-08-03T13:14:55.051Z,2.37
2022-08-03T13:17:23.763Z,2.43
2022-08-03T13:19:52.691Z,2.47
2022-08-03T13:22:23.277Z,2.17
2022-08-03T13:24:56.814Z,2.42
2022-08-03T13:28:05.506Z,2.28
2022-08-03T13:30:29.991Z,2.37
2022-08-03T13:33:00.221Z,2.22
2022-08-03T13:35:28.753Z,2.17
2022-08-03T13:37:56.840Z,2.03
2022-08-03T13:40:30.151Z,2.37
2022-08-03T13:42:58.789Z,2.00
2022-08-03T13:45:27.754Z,2.22
2022-08-03T13:47:55.872Z,2.28
2022-08-03T13:50:24.166Z,2.30
2022-08-03T13:52:52.131Z,2.20
2022-08-03T13:55:20.067Z,2.70
2022-08-03T13:58:03.131Z,2.60
2022-08-03T14:00:35.309Z,2.15
2022-08-03T14:03:17.594Z,2.25
2022-08-03T14:05:45.609Z,2.70
2022-08-03T14:08:13.942Z,2.20
2022-08-03T14:10:43.713Z,2.40
2022-08-03T14:13:16.771Z,2.40
2022-08-03T14:15:51.019Z,2.30
2022-08-03T14:18:28.839Z,2.10
2022-08-03T14:21:06.948Z,2.23
2022-08-03T14:23:37.930Z,2.20
2022-08-03T14:26:07.750Z,3.03
2022-08-03T14:28:36.523Z,1.90
2022-08-03T14:31:04.741Z,2.65
2022-08-03T14:33:37.004Z,2.77
2022-08-03T14:36:05.563Z,2.55
2022-08-03T14:38:33.619Z,2.67
2022-08-03T14:41:01.956Z,2.92
2022-08-03T14:43:34.141Z,2.67
2022-08-03T14:46:02.685Z,2.37
2022-08-03T14:50:28.446Z,2.10
2022-08-03T14:51:19.414Z,2.33
2022-08-03T14:53:47.379Z,2.50
2022-08-03T14:56:15.288Z,2.30
2022-08-03T14:58:43.551Z,2.80
2022-08-03T15:02:02.544Z,2.55
2022-08-03T15:03:59.995Z,2.90
2022-08-03T15:06:27.927Z,2.15
2022-08-03T15:09:21.447Z,2.80
2022-08-03T15:11:44.390Z,2.50
2022-08-03T15:14:13.476Z,2.40
2022-08-03T15:16:43.344Z,2.60
2022-08-03T15:20:00.425Z,2.67
2022-08-03T15:22:00.869Z,2.22
2022-08-03T15:24:29.699Z,2.40
2022-08-03T15:26:57.926Z,2.50
2022-08-03T15:30:06.206Z,2.17
2022-08-03T15:32:15.642Z,2.33
2022-08-03T15:34:50.352Z,2.33
2022-08-03T15:37:20.835Z,2.50
2022-08-03T15:39:59.158Z,2.00
2022-08-03T15:42:29.748Z,2.60
2022-08-03T15:44:57.873Z,2.42
2022-08-03T15:47:26.294Z,2.80
2022-08-03T15:49:59.616Z,3.73
2022-08-03T15:52:27.930Z,2.45
2022-08-03T15:54:56.337Z,3.35
2022-08-03T15:57:24.259Z,2.85
2022-08-03T15:59:55.428Z,2.67
2022-08-03T16:02:23.717Z,2.60
2022-08-03T16:04:52.443Z,2.80
2022-08-03T16:07:40.350Z,2.67
2022-08-03T16:10:30.789Z,2.60
2022-08-03T16:13:00.225Z,3.10
2022-08-03T16:15:28.738Z,2.67
2022-08-03T16:17:57.482Z,2.65
2022-08-03T16:20:31.352Z,2.67
2022-08-03T16:23:10.503Z,2.40
2022-08-03T16:25:49.348Z,2.95
2022-08-03T16:28:18.465Z,2.60
2022-08-03T16:30:47.329Z,2.85
2022-08-03T16:33:17.296Z,2.62
2022-08-03T16:35:47.187Z,3.03
2022-08-03T16:38:19.170Z,2.58
2022-08-03T16:40:52.017Z,2.87
2022-08-03T16:43:22.499Z,2.75
2022-08-03T16:45:51.262Z,2.33
2022-08-03T16:48:19.678Z,2.60
2022-08-03T16:50:48.000Z,2.80
2022-08-03T16:53:17.624Z,2.43
2022-08-03T16:56:09.841Z,3.20
2022-08-03T16:58:42.267Z,2.85
2022-08-03T17:01:24.403Z,3.67
2022-08-03T17:04:01.919Z,3.42
2022-08-03T17:06:37.904Z,2.97
2022-08-03T17:09:15.268Z,3.10
2022-08-03T17:11:47.990Z,3.28
2022-08-03T17:14:22.069Z,3.05
2022-08-03T17:16:54.241Z,3.30
2022-08-03T17:19:26.545Z,3.33
2022-08-03T17:21:58.013Z,3.00
2022-08-03T17:24:33.955Z,3.40
2022-08-03T17:27:18.553Z,2.85
2022-08-03T17:30:13.444Z,3.05
2022-08-03T17:32:57.685Z,2.57
2022-08-03T17:35:34.344Z,2.97
2022-08-03T17:38:08.917Z,3.78
2022-08-03T17:40:43.076Z,3.25
2022-08-03T17:46:07.132Z,3.00
2022-08-03T17:48:35.487Z,2.62
2022-08-03T17:51:17.180Z,3.55
2022-08-03T17:53:53.809Z,3.20
2022-08-03T17:56:38.778Z,2.95
2022-08-03T17:59:50.971Z,2.87
2022-08-03T18:03:10.093Z,3.08
2022-08-03T18:08:38.406Z,3.00
2022-08-03T18:11:14.536Z,3.45
2022-08-03T18:14:03.062Z,3.00
2022-08-03T18:16:43.813Z,3.55
2022-08-03T18:19:13.795Z,4.00
2022-08-03T18:24:31.480Z,3.70
2022-08-03T18:27:02.485Z,3.60
2022-08-03T18:29:37.222Z,3.42
2022-08-03T18:32:13.464Z,4.35
2022-08-03T18:37:51.830Z,3.95
2022-08-03T18:40:22.114Z,3.77
2022-08-03T18:42:52.814Z,3.67
2022-08-03T18:45:55.649Z,3.05
2022-08-03T18:48:33.508Z,4.03
2022-08-03T18:51:24.123Z,3.42
2022-08-03T18:54:45.769Z,3.30
2022-08-03T18:57:03.339Z,3.70
2022-08-03T19:00:14.146Z,3.70
2022-08-03T19:02:49.086Z,3.40
2022-08-03T19:05:23.628Z,3.30
2022-08-03T19:08:18.027Z,3.67
2022-08-03T19:10:57.689Z,3.33
2022-08-03T19:13:44.414Z,4.32
2022-08-03T19:16:30.808Z,3.92
2022-08-03T19:19:01.435Z,3.85
2022-08-03T19:21:30.799Z,3.60
2022-08-03T19:24:01.741Z,3.60
2022-08-03T19:26:31.407Z,3.55
2022-08-03T19:28:59.812Z,3.78
2022-08-03T19:31:30.770Z,3.83
2022-08-03T19:34:00.507Z,3.70
2022-08-03T19:36:29.676Z,4.00
2022-08-03T19:38:58.502Z,4.22
2022-08-03T19:41:41.848Z,3.50
2022-08-03T19:44:19.963Z,3.87
2022-08-03T19:47:01.568Z,3.80
2022-08-03T19:50:06.045Z,3.90
2022-08-03T19:52:31.404Z,4.60
2022-08-03T19:55:03.831Z,4.18
2022-08-03T19:57:34.836Z,4.12
2022-08-03T20:00:09.470Z,3.63
2022-08-03T20:02:39.819Z,4.10
2022-08-03T20:05:14.863Z,3.92
2022-08-03T20:07:48.157Z,4.00
2022-08-03T20:10:18.253Z,3.65
2022-08-03T20:12:48.590Z,3.67
2022-08-03T20:15:18.391Z,4.28
2022-08-03T20:18:00.274Z,4.87
2022-08-03T20:20:32.749Z,4.90
2022-08-03T20:23:07.158Z,7.97
2022-08-03T20:25:55.779Z,11.20
2022-08-03T20:28:34.821Z,11.20
2022-08-03T20:31:02.819Z,9.43
2022-08-03T20:33:46.065Z,8.20
2022-08-03T20:39:07.550Z,7.97
2022-08-03T20:41:36.243Z,7.12
2022-08-03T20:44:06.003Z,6.90
2022-08-03T20:46:50.125Z,7.05
2022-08-03T20:49:23.569Z,6.55
2022-08-03T20:51:53.641Z,6.60
2022-08-03T20:54:29.201Z,6.25
2022-08-03T20:57:03.657Z,7.60
2022-08-03T20:59:50.179Z,7.97
2022-08-03T21:02:28.822Z,8.00
2022-08-03T21:08:06.088Z,6.72
2022-08-03T21:10:38.096Z,5.95
2022-08-03T21:12:56.700Z,3.55
2022-08-03T21:12:58.523Z,4.18
2022-08-03T21:13:04.167Z,3.92
2022-08-03T21:13:04.732Z,3.20
2022-08-03T21:13:07.170Z,7.62
2022-08-03T21:13:07.969Z,7.90
2022-08-03T21:13:23.583Z,6.37
2022-08-03T21:16:11.353Z,6.15
2022-08-03T21:18:46.144Z,6.10
2022-08-03T21:21:15.984Z,5.37
2022-08-03T21:23:49.691Z,5.28
2022-08-03T21:26:20.155Z,5.78
2022-08-03T21:28:50.250Z,5.90
2022-08-03T21:31:24.422Z,5.50
2022-08-03T21:33:56.598Z,5.80
2022-08-03T21:36:27.816Z,4.97
2022-08-03T21:38:58.024Z,5.22
2022-08-03T21:41:27.975Z,5.70
2022-08-03T21:43:56.615Z,5.60
2022-08-03T21:46:26.755Z,7.00
2022-08-03T21:49:51.741Z,6.62
2022-08-03T21:51:50.572Z,5.50
2022-08-03T21:54:20.850Z,5.28
2022-08-03T21:56:51.263Z,4.70
2022-08-03T21:59:20.702Z,4.55
2022-08-03T22:01:58.622Z,4.32
2022-08-03T22:04:45.841Z,4.18
2022-08-03T22:07:16.787Z,4.37
2022-08-03T22:09:50.921Z,3.97
2022-08-03T22:12:22.845Z,4.00
2022-08-03T22:15:00.895Z,4.07
2022-08-03T22:17:55.916Z,3.97
2022-08-03T22:20:21.793Z,3.85
2022-08-03T22:22:55.836Z,4.30
2022-08-03T22:25:38.456Z,4.40
2022-08-03T22:28:10.759Z,4.70
2022-08-03T22:30:40.457Z,4.90
2022-08-03T22:33:11.460Z,5.20
2022-08-03T22:35:48.193Z,5.33
2022-08-03T22:38:18.394Z,5.62
2022-08-03T22:40:49.132Z,4.80
2022-08-03T22:43:17.545Z,4.97
2022-08-03T22:46:10.540Z,5.05
2022-08-03T22:48:36.646Z,4.80
2022-08-03T22:51:09.659Z,4.40
2022-08-03T22:53:39.537Z,4.70
2022-08-03T22:56:08.933Z,4.90
2022-08-03T22:58:37.893Z,5.15
2022-08-03T23:01:11.684Z,4.60
2022-08-03T23:03:59.853Z,4.37
2022-08-03T23:06:36.845Z,4.22
2022-08-03T23:09:11.246Z,4.05
2022-08-03T23:11:45.661Z,4.45
2022-08-03T23:14:19.287Z,5.47
2022-08-03T23:16:48.046Z,4.90
2022-08-03T23:19:25.207Z,4.30
2022-08-03T23:22:02.210Z,4.30
2022-08-03T23:24:36.647Z,4.18
2022-08-03T23:27:05.937Z,4.27
2022-08-03T23:29:36.620Z,3.90
2022-08-03T23:32:05.889Z,4.07
2022-08-03T23:34:53.009Z,4.28
2022-08-03T23:37:21.222Z,4.05
2022-08-03T23:39:49.804Z,3.70
2022-08-03T23:42:21.215Z,3.50
2022-08-03T23:44:54.642Z,4.18
2022-08-03T23:47:23.543Z,4.05
2022-08-03T23:49:52.047Z,4.00
2022-08-03T23:52:32.382Z,4.10
2022-08-03T23:55:16.320Z,4.35
2022-08-03T23:58:11.039Z,4.12
